Time;durP1;ratioP1;P1;durP2;ratioP2;P2;SDS_P1;SDS_P2;PMS_P1;PMS_P2;Temp;Humidity;BMP_temperature;BMP_pressure;BME280_temperature;BME280_humidity;BME280_pressure;Samples;Min_cycle;Max_cycle;Signal;HPM_P1;HPM_P2
2021/03/11 00:02:02;;;;;;;34.28;20.95;;;;;;;1.26;100.00;101477.81;4916829;29;20028;-75
2021/03/11 00:04:47;;;;;;;28.92;18.13;;;;;;;1.02;100.00;101484.75;4918865;29;20020;-74
2021/03/11 00:07:33;;;;;;;33.40;20.48;;;;;;;1.17;100.00;101482.69;4917167;29;20377;-74
2021/03/11 00:10:19;;;;;;;31.20;19.83;;;;;;;0.96;100.00;101489.72;4917690;29;20357;-74
2021/03/11 00:13:07;;;;;;;33.00;21.15;;;;;;;0.85;100.00;101477.28;4903738;29;20052;-74
2021/03/11 00:15:52;;;;;;;34.55;20.80;;;;;;;1.01;100.00;101480.44;4916781;29;20035;-74
2021/03/11 00:18:38;;;;;;;33.08;20.27;;;;;;;1.03;100.00;101480.47;4917177;29;20366;-73
2021/03/11 00:21:24;;;;;;;32.88;20.73;;;;;;;0.83;100.00;101477.25;4917810;29;20035;-73
2021/03/11 00:24:10;;;;;;;39.35;23.73;;;;;;;0.98;100.00;101476.88;4917234;29;20111;-73
2021/03/11 00:26:56;;;;;;;34.20;20.98;;;;;;;1.20;100.00;101479.31;4916485;29;20117;-73
2021/03/11 00:29:41;;;;;;;35.75;21.45;;;;;;;1.18;100.00;101489.59;4918385;29;20055;-74
2021/03/11 00:32:27;;;;;;;32.08;21.23;;;;;;;1.19;100.00;101481.03;4903438;29;20146;-73
2021/03/11 00:35:13;;;;;;;35.03;21.10;;;;;;;1.14;100.00;101480.00;4917111;29;20027;-73
2021/03/11 00:37:59;;;;;;;34.15;20.73;;;;;;;0.81;100.00;101472.84;4917308;29;20032;-73
2021/03/11 00:40:45;;;;;;;32.03;20.17;;;;;;;0.64;100.00;101480.00;4917737;29;20055;-73
2021/03/11 00:43:31;;;;;;;38.00;22.17;;;;;;;0.86;100.00;101473.88;4916937;29;20046;-73
2021/03/11 00:46:18;;;;;;;35.78;21.90;;;;;;;0.77;100.00;101476.16;4903939;29;20461;-72
2021/03/11 00:49:04;;;;;;;37.75;22.90;;;;;;;0.61;100.00;101481.63;4918196;29;20483;-72
2021/03/11 00:51:49;;;;;;;38.47;23.42;;;;;;;0.64;100.00;101477.44;4916304;29;20127;-72
2021/03/11 00:54:35;;;;;;;39.28;24.23;;;;;;;0.55;100.00;101490.00;4905023;29;20036;-73
2021/03/11 00:57:21;;;;;;;41.70;24.58;;;;;;;0.56;100.00;101484.03;4916513;29;20043;-72
2021/03/11 01:00:11;;;;;;;43.35;25.13;;;;;;;0.73;100.00;101479.47;4918307;29;20043;-73
2021/03/11 01:02:56;;;;;;;45.15;26.25;;;;;;;0.52;100.00;101483.88;4918602;29;20039;-73
2021/03/11 01:05:42;;;;;;;46.75;26.30;;;;;;;0.49;100.00;101478.63;4921364;29;20024;-73
2021/03/11 01:08:28;;;;;;;40.58;24.38;;;;;;;0.52;100.00;101492.47;4920511;29;20338;-73
2021/03/11 01:11:14;;;;;;;38.72;23.40;;;;;;;0.29;100.00;101495.97;4920225;29;20024;-73
2021/03/11 01:14:00;;;;;;;40.85;23.88;;;;;;;0.31;100.00;101488.28;4919970;29;20095;-72
2021/03/11 01:16:50;;;;;;;44.28;26.35;;;;;;;0.43;100.00;101494.75;4921331;29;20028;-72
2021/03/11 01:19:37;;;;;;;46.20;26.35;;;;;;;0.51;100.00;101490.72;4920251;29;20381;-71
2021/03/11 01:22:23;;;;;;;44.70;26.80;;;;;;;0.42;100.00;101493.00;4920062;29;20123;-72
2021/03/11 01:25:09;;;;;;;47.75;26.58;;;;;;;0.44;100.00;101485.31;4919934;29;20047;-72
2021/03/11 01:27:55;;;;;;;42.35;25.00;;;;;;;0.38;100.00;101483.41;4919634;29;20028;-72
2021/03/11 01:30:40;;;;;;;45.83;26.45;;;;;;;0.59;100.00;101478.97;4920000;29;20102;-72
2021/03/11 01:33:26;;;;;;;47.97;27.08;;;;;;;0.70;100.00;101477.66;4919716;29;20048;-72
2021/03/11 01:36:12;;;;;;;49.15;28.42;;;;;;;0.49;100.00;101473.47;4920893;29;20075;-71
2021/03/11 01:38:59;;;;;;;48.67;26.55;;;;;;;0.60;100.00;101477.28;4906418;29;20024;-72
2021/03/11 01:41:44;;;;;;;42.92;26.50;;;;;;;0.51;100.00;101484.72;4920688;29;20107;-71
2021/03/11 01:44:30;;;;;;;47.38;27.27;;;;;;;0.81;100.00;101480.59;4918961;29;20032;-71
2021/03/11 01:47:17;;;;;;;45.63;27.27;;;;;;;0.47;100.00;101483.72;4919618;29;20072;-72
2021/03/11 01:50:04;;;;;;;47.00;26.77;;;;;;;0.99;100.00;101494.09;4920284;29;20091;-72
2021/03/11 01:52:51;;;;;;;47.42;27.88;;;;;;;0.72;100.00;101488.03;4919360;29;20098;-71
2021/03/11 01:55:37;;;;;;;46.47;26.48;;;;;;;0.50;100.00;101494.13;4920167;29;20028;-71
2021/03/11 01:58:23;;;;;;;45.33;26.60;;;;;;;0.50;100.00;101486.41;4919258;29;20020;-70
2021/03/11 02:01:10;;;;;;;44.83;25.45;;;;;;;0.64;100.00;101479.16;4919620;29;20035;-72
2021/03/11 02:03:55;;;;;;;47.40;25.67;;;;;;;0.36;100.00;101497.06;4919022;29;20175;-72
2021/03/11 02:06:41;;;;;;;45.50;26.45;;;;;;;0.81;100.00;101490.91;4919138;29;20043;-72
2021/03/11 02:09:27;;;;;;;46.90;26.75;;;;;;;0.28;100.00;101499.34;4919356;29;20028;-72
2021/03/11 02:12:42;;;;;;;47.53;27.70;;;;;;;0.31;100.00;101496.88;4919359;29;20372;-71
2021/03/11 02:15:38;;;;;;;48.05;27.02;;;;;;;0.51;100.00;101493.31;4896184;29;20043;-72
2021/03/11 02:18:34;;;;;;;45.13;25.10;;;;;;;0.04;100.00;101493.28;4920661;29;20054;-71
2021/03/11 02:21:24;;;;;;;42.50;25.63;;;;;;;-0.03;100.00;101496.50;4905882;29;20222;-72
2021/03/11 02:24:12;;;;;;;42.53;25.20;;;;;;;0.31;100.00;101496.88;4919389;29;20036;-72
2021/03/11 02:27:17;;;;;;;41.45;24.70;;;;;;;0.40;100.00;101510.09;4918283;29;20119;-71
2021/03/11 02:30:04;;;;;;;42.17;25.27;;;;;;;0.30;100.00;101512.28;4920041;29;20448;-73
2021/03/11 02:32:51;;;;;;;37.80;23.17;;;;;;;0.34;100.00;101511.56;4918470;29;20453;-72
2021/03/11 02:35:39;;;;;;;45.45;25.33;;;;;;;0.51;100.00;101507.91;4918806;29;20032;-72
2021/03/11 02:38:27;;;;;;;41.15;23.67;;;;;;;0.28;100.00;101514.81;4918427;29;20028;-72
2021/03/11 02:41:16;;;;;;;43.58;24.90;;;;;;;0.05;100.00;101510.53;4918865;29;20028;-71
2021/03/11 02:44:04;;;;;;;44.72;25.85;;;;;;;0.15;100.00;101519.47;4905376;29;20441;-71
2021/03/11 02:46:52;;;;;;;42.05;23.50;;;;;;;0.08;100.00;101527.78;4918665;29;20036;-72
2021/03/11 02:49:38;;;;;;;41.85;24.13;;;;;;;0.29;100.00;101536.31;4918416;29;20039;-72
2021/03/11 02:52:25;;;;;;;43.40;24.15;;;;;;;-0.24;100.00;101539.47;4905234;29;20107;-72
2021/03/11 02:55:12;;;;;;;41.28;23.77;;;;;;;-0.08;100.00;101544.38;4918392;29;20106;-71
2021/03/11 02:57:59;;;;;;;42.55;24.63;;;;;;;0.09;100.00;101551.91;4904990;29;20028;-72
2021/03/11 03:00:45;;;;;;;42.33;23.88;;;;;;;0.27;100.00;101567.16;4918341;29;20036;-72
2021/03/11 03:03:32;;;;;;;47.33;25.95;;;;;;;0.19;100.00;101554.84;4917747;29;20062;-71
2021/03/11 03:06:18;;;;;;;45.03;25.98;;;;;;;-0.04;100.00;101557.41;4918787;29;20032;-72
2021/03/11 03:09:05;;;;;;;44.67;25.83;;;;;;;0.23;100.00;101561.88;4918719;29;20351;-72
2021/03/11 03:11:53;;;;;;;44.38;25.60;;;;;;;0.06;100.00;101561.22;4918180;29;20024;-72
2021/03/11 03:14:41;;;;;;;45.42;25.33;;;;;;;0.13;100.00;101570.94;4917021;29;20174;-72
2021/03/11 03:17:27;;;;;;;49.00;26.30;;;;;;;0.04;100.00;101555.13;4917961;29;20069;-71
2021/03/11 03:20:15;;;;;;;40.80;23.13;;;;;;;-0.06;100.00;101574.53;4904698;29;20092;-72
2021/03/11 03:23:05;;;;;;;45.28;25.63;;;;;;;-0.17;100.00;101567.19;4905337;29;20024;-72
2021/03/11 03:25:51;;;;;;;41.88;23.40;;;;;;;-0.06;100.00;101578.78;4904339;29;20028;-72
2021/03/11 03:28:37;;;;;;;44.85;24.15;;;;;;;-0.26;100.00;101574.56;4917654;29;20465;-72
2021/03/11 03:31:23;;;;;;;45.05;24.58;;;;;;;-0.03;100.00;101568.59;4917599;29;20036;-72
2021/03/11 03:34:09;;;;;;;42.35;24.10;;;;;;;0.08;100.00;101569.88;4917634;29;20079;-72
2021/03/11 03:36:54;;;;;;;44.22;24.17;;;;;;;0.12;100.00;101571.75;4905359;29;20036;-73
2021/03/11 03:39:40;;;;;;;49.53;27.70;;;;;;;-0.18;100.00;101583.47;4917216;29;20024;-72
2021/03/11 03:42:29;;;;;;;47.55;26.42;;;;;;;0.02;100.00;101587.69;4904676;29;20413;-71
2021/03/11 03:45:25;;;;;;;45.25;25.35;;;;;;;-0.01;100.00;101591.03;4904743;29;20052;-72
2021/03/11 03:48:17;;;;;;;45.97;26.33;;;;;;;0.46;100.00;101587.66;4904711;29;20024;-72
2021/03/11 03:51:04;;;;;;;47.22;25.23;;;;;;;0.34;100.00;101606.91;4916784;29;20175;-73
2021/03/11 03:53:52;;;;;;;45.30;23.17;;;;;;;0.09;100.00;101610.28;4917522;29;20445;-73
2021/03/11 03:56:41;;;;;;;40.53;22.95;;;;;;;-0.05;100.00;101614.91;4917564;29;20028;-72
2021/03/11 03:59:35;;;;;;;43.25;25.27;;;;;;;-0.14;100.00;101617.13;4905711;29;20036;-73
2021/03/11 04:02:22;;;;;;;41.35;23.73;;;;;;;-0.18;100.00;101614.34;4916694;29;20095;-73
2021/03/11 04:05:10;;;;;;;44.63;24.23;;;;;;;-0.08;100.00;101624.22;4917502;29;20059;-73
2021/03/11 04:07:56;;;;;;;49.50;25.27;;;;;;;-0.12;100.00;101624.91;4904325;29;20052;-72
2021/03/11 04:10:42;;;;;;;50.50;26.63;;;;;;;0.08;100.00;101623.09;4904422;29;20028;-72
2021/03/11 04:13:31;;;;;;;45.72;25.02;;;;;;;0.02;100.00;101621.16;4917091;29;20031;-72
2021/03/11 04:16:18;;;;;;;45.20;25.25;;;;;;;-0.21;100.00;101621.94;4917383;29;20024;-72
2021/03/11 04:19:05;;;;;;;46.03;26.88;;;;;;;0.15;100.00;101636.28;4917067;29;20031;-72
2021/03/11 04:21:52;;;;;;;46.38;25.38;;;;;;;-0.15;100.00;101640.22;4916126;29;20024;-72
2021/03/11 04:24:40;;;;;;;49.25;25.45;;;;;;;-0.19;100.00;101633.22;4917723;29;20024;-72
2021/03/11 04:27:27;;;;;;;44.63;25.42;;;;;;;-0.61;100.00;101636.59;4917250;29;20418;-72
2021/03/11 04:30:14;;;;;;;49.08;27.10;;;;;;;-0.51;100.00;101642.19;4918188;29;20028;-73
2021/03/11 04:33:00;;;;;;;49.95;26.00;;;;;;;-0.47;100.00;101640.63;4916336;29;20048;-73
2021/03/11 04:35:46;;;;;;;47.20;25.27;;;;;;;-0.36;100.00;101642.81;4917821;29;20457;-73
2021/03/11 04:38:32;;;;;;;42.88;24.60;;;;;;;-0.13;100.00;101631.75;4920167;29;20040;-73
2021/03/11 04:41:19;;;;;;;47.08;26.02;;;;;;;0.24;100.00;101648.63;4920731;29;20454;-73
2021/03/11 04:44:05;;;;;;;47.38;25.92;;;;;;;-0.11;100.00;101639.53;4907588;29;20059;-72
2021/03/11 04:46:53;;;;;;;48.33;26.15;;;;;;;-0.33;100.00;101650.66;4920285;29;20028;-72
2021/03/11 04:49:40;;;;;;;50.08;25.65;;;;;;;-0.08;100.00;101653.41;4907866;29;20032;-72
2021/03/11 04:52:26;;;;;;;46.88;25.55;;;;;;;-0.55;100.00;101660.88;4920231;29;20080;-72
2021/03/11 04:55:12;;;;;;;49.00;26.83;;;;;;;-0.50;100.00;101651.69;4920471;29;20032;-72
2021/03/11 04:57:58;;;;;;;47.80;25.15;;;;;;;-0.31;100.00;101666.19;4920201;29;20032;-72
2021/03/11 05:00:49;;;;;;;52.38;27.20;;;;;;;-0.56;100.00;101664.28;4920971;29;20106;-72
2021/03/11 05:03:37;;;;;;;45.88;24.13;;;;;;;-0.44;100.00;101675.09;4919745;29;20090;-72
2021/03/11 05:06:23;;;;;;;46.70;25.30;;;;;;;-0.22;100.00;101682.00;4921705;29;20075;-72
2021/03/11 05:09:09;;;;;;;49.28;24.52;;;;;;;-0.54;100.00;101684.94;4919684;29;20027;-73
2021/03/11 05:11:54;;;;;;;50.70;27.17;;;;;;;-0.07;100.00;101682.63;4921354;29;20104;-73
2021/03/11 05:14:40;;;;;;;54.83;26.35;;;;;;;-0.52;100.00;101679.03;4906403;29;20028;-73
2021/03/11 05:17:26;;;;;;;54.05;26.05;;;;;;;-0.30;100.00;101680.81;4920578;29;20027;-73
2021/03/11 05:20:12;;;;;;;49.28;25.70;;;;;;;0.03;100.00;101687.31;4920065;29;20028;-72
2021/03/11 05:22:58;;;;;;;47.75;25.60;;;;;;;-0.08;100.00;101691.19;4920408;29;20437;-72
2021/03/11 05:25:44;;;;;;;44.38;24.05;;;;;;;-0.32;100.00;101701.31;4907001;29;20476;-73
2021/03/11 05:28:30;;;;;;;51.13;27.02;;;;;;;0.12;100.00;101700.53;4920172;29;20064;-73
2021/03/11 05:31:15;;;;;;;51.72;26.13;;;;;;;-0.04;100.00;101711.09;4919435;29;20103;-72
2021/03/11 05:34:01;;;;;;;50.47;26.58;;;;;;;0.03;100.00;101719.13;4906514;29;20059;-73
2021/03/11 05:36:47;;;;;;;45.33;23.70;;;;;;;-0.19;100.00;101723.31;4920143;29;20035;-73
2021/03/11 05:39:33;;;;;;;46.97;26.38;;;;;;;0.03;100.00;101736.25;4919886;29;20032;-73
2021/03/11 05:42:20;;;;;;;46.83;26.13;;;;;;;-0.15;100.00;101728.66;4920046;29;20028;-73
2021/03/11 05:45:07;;;;;;;48.50;26.63;;;;;;;0.18;100.00;101739.44;4919118;29;20047;-73
2021/03/11 05:47:53;;;;;;;46.83;25.60;;;;;;;0.10;100.00;101735.69;4918829;29;20118;-73
2021/03/11 05:50:39;;;;;;;46.72;26.42;;;;;;;0.49;100.00;101742.44;4906119;29;20149;-72
2021/03/11 05:53:25;;;;;;;47.50;26.50;;;;;;;0.96;100.00;101736.50;4906591;29;20055;-73
2021/03/11 05:56:10;;;;;;;44.83;25.83;;;;;;;0.69;100.00;101746.66;4919015;29;20032;-73
2021/03/11 05:58:57;;;;;;;46.05;25.33;;;;;;;1.22;100.00;101749.53;4919155;29;20110;-73
2021/03/11 06:01:42;;;;;;;38.53;22.05;;;;;;;0.39;100.00;101750.59;4919100;29;20091;-73
2021/03/11 06:04:29;;;;;;;41.17;22.48;;;;;;;1.08;100.00;101762.75;4920218;29;20505;-74
2021/03/11 06:07:15;;;;;;;43.78;23.77;;;;;;;0.92;100.00;101774.19;4918708;29;20040;-73
2021/03/11 06:10:05;;;;;;;42.10;24.55;;;;;;;0.89;100.00;101771.50;4906090;29;20028;-73
2021/03/11 06:12:52;;;;;;;43.95;25.48;;;;;;;1.11;100.00;101776.63;4906419;29;20373;-73
2021/03/11 06:15:39;;;;;;;43.85;24.48;;;;;;;1.39;100.00;101775.94;4905881;29;20088;-72
2021/03/11 06:18:25;;;;;;;42.92;23.90;;;;;;;1.26;100.00;101773.75;4919883;29;20556;-73
2021/03/11 06:21:11;;;;;;;36.10;20.55;;;;;;;1.13;100.00;101781.84;4918267;29;20031;-73
2021/03/11 06:23:57;;;;;;;36.50;20.83;;;;;;;1.14;100.00;101781.91;4919407;29;20110;-73
2021/03/11 06:26:43;;;;;;;37.03;20.95;;;;;;;1.08;100.00;101793.72;4919383;29;20070;-74
2021/03/11 06:29:39;;;;;;;36.22;21.05;;;;;;;1.17;100.00;101794.94;4919067;29;20032;-73
2021/03/11 06:32:26;;;;;;;41.20;21.30;;;;;;;1.09;100.00;101795.47;4919128;29;20044;-73
2021/03/11 06:35:19;;;;;;;35.65;20.17;;;;;;;0.49;100.00;101806.88;4918648;29;20106;-73
2021/03/11 06:38:05;;;;;;;37.30;21.77;;;;;;;1.04;100.00;101807.31;4918236;29;20364;-73
2021/03/11 06:40:54;;;;;;;38.75;22.10;;;;;;;1.12;100.00;101822.25;4919106;29;20070;-73
2021/03/11 06:43:55;;;;;;;39.42;21.65;;;;;;;1.35;100.00;101833.44;4918400;29;20433;-73
2021/03/11 06:47:01;;;;;;;42.65;25.17;;;;;;;2.02;100.00;101833.34;4924157;29;20055;-74
2021/03/11 06:49:58;;;;;;;33.80;20.10;;;;;;;1.82;100.00;101855.03;4923976;29;20048;-73
2021/03/11 06:53:04;;;;;;;31.50;18.83;;;;;;;1.21;100.00;101842.38;4938072;29;20032;-72
2021/03/11 06:55:49;;;;;;;35.70;19.95;;;;;;;1.30;100.00;101846.19;4920112;29;20067;-72
2021/03/11 06:58:37;;;;;;;33.45;19.40;;;;;;;1.18;100.00;101853.47;4919781;29;20028;-73
2021/03/11 07:01:24;;;;;;;42.75;21.55;;;;;;;1.52;100.00;101861.63;4919260;29;20033;-73
2021/03/11 07:04:22;;;;;;;34.58;20.33;;;;;;;1.44;100.00;101863.06;4918519;29;20039;-73
2021/03/11 07:07:40;;;;;;;36.22;20.35;;;;;;;1.76;100.00;101872.00;4905585;29;20119;-74
2021/03/11 07:10:27;;;;;;;40.20;21.50;;;;;;;2.22;100.00;101877.97;4905981;29;20056;-75
2021/03/11 07:13:19;;;;;;;38.95;23.20;;;;;;;2.01;100.00;101870.31;4918684;29;20111;-74
2021/03/11 07:16:11;;;;;;;35.83;21.27;;;;;;;1.75;100.00;101868.53;4917556;29;20035;-75
2021/03/11 07:19:16;;;;;;;34.72;20.13;;;;;;;1.06;100.00;101867.59;4905097;29;20039;-75
2021/03/11 07:22:16;;;;;;;38.72;21.08;;;;;;;1.20;100.00;101871.59;4917835;29;20025;-75
2021/03/11 07:25:36;;;;;;;36.63;21.70;;;;;;;1.27;100.00;101879.63;4919435;29;20477;-77
2021/03/11 07:28:27;;;;;;;38.30;22.60;;;;;;;1.24;100.00;101886.38;4916855;29;20060;-74
2021/03/11 07:31:13;;;;;;;33.38;19.83;;;;;;;1.03;100.00;101889.00;4917302;29;20130;-74
2021/03/11 07:33:59;;;;;;;37.58;20.88;;;;;;;0.96;100.00;101891.28;4918236;29;20047;-73
2021/03/11 07:36:45;;;;;;;37.78;23.42;;;;;;;0.95;100.00;101889.50;4918490;29;20422;-74
2021/03/11 07:39:40;;;;;;;42.17;23.52;;;;;;;1.33;100.00;101902.22;4917125;29;20059;-74
2021/03/11 07:42:48;;;;;;;40.67;23.23;;;;;;;1.47;100.00;101914.81;4918400;29;20108;-76
2021/03/11 07:45:35;;;;;;;37.50;21.75;;;;;;;1.27;100.00;101905.44;4917497;29;20050;-74
2021/03/11 07:48:21;;;;;;;37.78;21.65;;;;;;;1.44;100.00;101912.13;4917922;29;20047;-75
2021/03/11 07:54:41;;;;;;;36.60;21.92;;;;;;;1.62;100.00;101905.06;4919437;29;20032;-74
2021/03/11 07:57:27;;;;;;;34.25;19.98;;;;;;;1.61;100.00;101898.13;4917080;29;20044;-75
2021/03/11 08:00:15;;;;;;;34.60;20.83;;;;;;;2.00;100.00;101902.16;4919283;29;20338;-75
2021/03/11 08:03:34;;;;;;;35.53;20.20;;;;;;;2.08;100.00;101900.72;4905662;29;20121;-75
2021/03/11 08:06:30;;;;;;;38.35;20.15;;;;;;;1.65;100.00;101905.16;4904273;29;20120;-73
2021/03/11 08:09:39;;;;;;;36.00;19.63;;;;;;;1.59;100.00;101919.56;4916808;29;20361;-73
2021/03/11 08:12:37;;;;;;;32.17;19.63;;;;;;;1.63;100.00;101921.44;4917573;29;20099;-74
2021/03/11 08:15:25;;;;;;;36.65;22.40;;;;;;;1.97;100.00;101919.28;4917505;29;20024;-73
2021/03/11 08:18:34;;;;;;;45.38;26.80;;;;;;;2.44;100.00;101934.72;4917628;29;20087;-73
2021/03/11 08:21:25;;;;;;;37.42;21.90;;;;;;;2.42;100.00;101932.13;4917625;29;20028;-72
2021/03/11 08:25:02;;;;;;;38.35;22.45;;;;;;;2.71;100.00;101927.91;4917448;29;20141;-73
2021/03/11 08:27:48;;;;;;;36.63;22.13;;;;;;;2.59;100.00;101933.56;4894688;29;20374;-74
2021/03/11 08:30:37;;;;;;;38.47;22.95;;;;;;;2.50;100.00;101942.72;4904162;29;20032;-73
2021/03/11 08:33:26;;;;;;;36.75;20.88;;;;;;;1.92;100.00;101942.34;4918541;29;20470;-74
2021/03/11 08:36:24;;;;;;;37.15;22.48;;;;;;;2.64;100.00;101944.06;4916861;29;20164;-74
2021/03/11 08:39:33;;;;;;;32.65;20.75;;;;;;;2.44;100.00;101945.97;4904184;29;20039;-74
2021/03/11 08:42:49;;;;;;;38.55;20.90;;;;;;;2.44;100.00;101948.56;4916912;29;20541;-74
2021/03/11 08:45:36;;;;;;;35.92;20.35;;;;;;;2.46;100.00;101962.44;4903455;29;20115;-73
2021/03/11 08:48:33;;;;;;;39.70;22.88;;;;;;;3.28;100.00;101958.25;4917353;29;20039;-74
2021/03/11 08:51:19;;;;;;;38.10;22.42;;;;;;;3.77;100.00;101961.50;4916576;29;20036;-73
2021/03/11 08:54:21;;;;;;;34.65;20.65;;;;;;;2.79;100.00;101975.63;4904180;29;20170;-73
2021/03/11 08:57:06;;;;;;;35.30;19.38;;;;;;;3.10;100.00;101978.41;4917704;29;20055;-74
2021/03/11 08:59:52;;;;;;;32.63;19.63;;;;;;;3.60;100.00;101971.41;4916390;29;20446;-73
2021/03/11 09:02:38;;;;;;;30.20;18.95;;;;;;;3.76;100.00;101976.22;4916419;29;20025;-73
2021/03/11 09:05:48;;;;;;;34.90;20.17;;;;;;;3.90;100.00;101974.88;4916614;29;20036;-74
2021/03/11 09:08:36;;;;;;;37.40;21.98;;;;;;;3.65;100.00;101977.59;4903358;29;20090;-74
2021/03/11 09:11:23;;;;;;;34.10;20.05;;;;;;;3.65;100.00;101981.88;4918026;29;20032;-73
2021/03/11 09:14:09;;;;;;;35.85;21.70;;;;;;;4.13;100.00;101981.63;4916997;29;20095;-73
2021/03/11 09:17:03;;;;;;;37.80;23.05;;;;;;;4.36;100.00;101998.72;4917543;29;20075;-74
2021/03/11 09:20:05;;;;;;;36.53;21.60;;;;;;;4.42;100.00;101991.09;4916467;29;20047;-74
2021/03/11 09:22:51;;;;;;;30.75;18.92;;;;;;;3.57;100.00;101992.03;4917626;29;20373;-73
2021/03/11 09:25:37;;;;;;;32.28;19.23;;;;;;;3.71;100.00;101987.25;4921021;29;20032;-73
2021/03/11 09:28:23;;;;;;;32.55;20.80;;;;;;;4.19;100.00;101994.75;4919478;29;20040;-74
2021/03/11 09:31:20;;;;;;;34.88;21.67;;;;;;;4.29;100.00;101994.19;4921080;29;20024;-73
2021/03/11 09:34:07;;;;;;;30.30;18.13;;;;;;;4.17;100.00;102004.22;4919142;29;20127;-75
2021/03/11 09:36:53;;;;;;;34.50;21.38;;;;;;;4.35;100.00;102011.66;4920269;29;20047;-74
2021/03/11 09:39:57;;;;;;;33.45;19.90;;;;;;;4.13;100.00;102007.56;4920029;29;20032;-74
2021/03/11 09:43:11;;;;;;;32.80;20.00;;;;;;;4.25;100.00;102015.69;4919573;29;20020;-74
2021/03/11 09:46:00;;;;;;;30.25;19.30;;;;;;;3.85;100.00;102007.56;4919782;29;20043;-74
2021/03/11 09:48:53;;;;;;;34.17;19.77;;;;;;;3.49;100.00;102018.50;4921475;29;20087;-75
2021/03/11 09:51:39;;;;;;;37.03;21.35;;;;;;;3.45;100.00;102020.13;4920236;29;20020;-75
2021/03/11 09:54:24;;;;;;;35.08;22.15;;;;;;;4.30;100.00;102024.47;4906849;29;20028;-74
2021/03/11 09:57:10;;;;;;;35.20;22.00;;;;;;;4.43;100.00;102021.38;4919031;29;20135;-74
2021/03/11 09:59:56;;;;;;;40.67;25.52;;;;;;;4.80;100.00;102023.28;4906430;29;20474;-74
2021/03/11 10:02:50;;;;;;;34.10;21.90;;;;;;;4.42;100.00;102029.16;4906036;29;20020;-74
2021/03/11 10:05:36;;;;;;;36.90;22.77;;;;;;;4.80;100.00;102029.34;4919712;29;20120;-75
2021/03/11 10:08:37;;;;;;;33.78;21.52;;;;;;;4.66;100.00;102040.19;4920048;29;20423;-74
2021/03/11 10:11:30;;;;;;;35.00;21.13;;;;;;;4.28;100.00;102039.13;4919450;29;20107;-75
2021/03/11 10:14:24;;;;;;;37.58;21.40;;;;;;;4.44;100.00;102033.53;4918646;29;20039;-75
2021/03/11 10:17:28;;;;;;;33.75;20.67;;;;;;;4.65;100.00;102039.31;4918993;29;20028;-75
2021/03/11 10:20:21;;;;;;;31.77;20.25;;;;;;;4.92;100.00;102037.47;4918781;29;20043;-75
2021/03/11 10:23:18;;;;;;;36.17;21.45;;;;;;;4.84;100.00;102036.38;4906652;29;20028;-75
2021/03/11 10:26:22;;;;;;;30.00;19.65;;;;;;;4.75;100.00;102033.53;4906385;29;20032;-74
2021/03/11 10:29:11;;;;;;;31.38;18.20;;;;;;;4.20;100.00;102038.03;4905449;29;20401;-75
2021/03/11 10:32:04;;;;;;;31.60;16.77;;;;;;;4.31;100.00;102033.16;4921632;29;20028;-75
2021/03/11 10:34:50;;;;;;;31.85;18.88;;;;;;;4.62;100.00;102034.03;4919346;29;20074;-76
2021/03/11 10:37:41;;;;;;;27.20;17.83;;;;;;;4.88;100.00;102040.81;4918574;29;20103;-77
2021/03/11 10:40:27;;;;;;;25.38;17.08;;;;;;;5.00;100.00;102043.75;4906178;29;20028;-77
2021/03/11 10:43:28;;;;;;;30.35;17.65;;;;;;;5.15;100.00;102045.84;4918456;29;20111;-77
2021/03/11 10:46:17;;;;;;;28.60;17.73;;;;;;;4.57;100.00;102045.13;4918566;29;20083;-77
2021/03/11 10:49:03;;;;;;;31.55;17.40;;;;;;;4.09;100.00;102052.38;4918337;29;20099;-77
2021/03/11 10:55:40;;;;;;;24.63;15.55;;;;;;;4.24;100.00;102037.28;4891716;29;20111;-77
2021/03/11 10:58:27;;;;;;;23.98;15.80;;;;;;;4.48;100.00;102040.56;4905159;29;20472;-76
2021/03/11 11:01:17;;;;;;;27.38;16.45;;;;;;;4.97;100.00;102035.88;4905506;29;20167;-77
2021/03/11 11:04:03;;;;;;;26.88;16.60;;;;;;;4.50;100.00;102033.69;4917327;29;20098;-78
2021/03/11 11:06:49;;;;;;;26.67;16.70;;;;;;;4.13;100.00;102030.00;4918538;29;20365;-77
2021/03/11 11:09:35;;;;;;;26.45;15.98;;;;;;;4.33;100.00;102040.13;4917647;29;20023;-78
2021/03/11 11:12:22;;;;;;;26.70;16.05;;;;;;;4.48;100.00;102029.31;4917944;29;20368;-76
2021/03/11 11:15:08;;;;;;;25.70;15.80;;;;;;;4.69;100.00;102037.66;4917868;29;20203;-75
2021/03/11 11:17:54;;;;;;;24.05;15.98;;;;;;;4.60;100.00;102045.22;4917590;29;20036;-75
2021/03/11 11:20:40;;;;;;;26.42;16.05;;;;;;;5.17;100.00;102045.03;4918535;29;20036;-76
2021/03/11 11:23:26;;;;;;;23.73;14.52;;;;;;;5.73;100.00;102035.13;4918204;29;20020;-76
2021/03/11 11:26:12;;;;;;;23.70;15.05;;;;;;;5.71;100.00;102045.50;4917601;29;20035;-76
2021/03/11 11:28:57;;;;;;;22.23;14.68;;;;;;;5.44;100.00;102032.72;4917657;29;20039;-76
2021/03/11 11:31:43;;;;;;;21.48;14.98;;;;;;;6.41;100.00;102042.72;4904781;29;20032;-75
2021/03/11 11:34:29;;;;;;;21.63;13.32;;;;;;;6.68;100.00;102041.56;4917852;29;20111;-76
2021/03/11 11:37:15;;;;;;;23.80;14.73;;;;;;;5.95;100.00;102029.59;4918200;29;20027;-76
2021/03/11 11:40:00;;;;;;;20.10;12.52;;;;;;;6.01;100.00;102037.53;4917130;29;20042;-76
2021/03/11 11:42:46;;;;;;;20.35;13.25;;;;;;;6.17;100.00;102042.22;4917667;29;20087;-76
2021/03/11 11:45:32;;;;;;;18.85;12.70;;;;;;;6.03;100.00;102041.91;4917686;29;20028;-76
2021/03/11 11:48:52;;;;;;;19.13;12.25;;;;;;;6.35;100.00;102034.81;4918323;29;20459;-77
2021/03/11 11:51:38;;;;;;;21.33;14.07;;;;;;;6.19;100.00;102043.16;4905926;29;20031;-75
2021/03/11 11:54:25;;;;;;;20.83;13.23;;;;;;;5.86;100.00;102032.00;4917486;29;20063;-75
2021/03/11 11:57:20;;;;;;;20.73;13.90;;;;;;;6.48;98.10;102042.00;4918197;29;20071;-75
2021/03/11 12:00:09;;;;;;;19.98;12.80;;;;;;;6.76;100.00;102036.50;4917080;29;20473;-75
2021/03/11 12:02:54;;;;;;;19.02;12.40;;;;;;;6.29;95.47;102034.66;4916774;29;20035;-75
2021/03/11 12:05:40;;;;;;;19.73;12.77;;;;;;;6.77;99.27;102020.91;4917838;29;20034;-75
2021/03/11 12:08:26;;;;;;;18.33;11.90;;;;;;;6.20;90.64;102021.47;4918019;29;20024;-75
2021/03/11 12:11:12;;;;;;;18.27;12.10;;;;;;;6.46;89.42;102026.34;4918397;29;20461;-76
2021/03/11 12:13:58;;;;;;;17.90;11.20;;;;;;;5.97;88.53;102020.09;4918774;29;20369;-75
2021/03/11 12:16:45;;;;;;;19.02;12.55;;;;;;;5.09;92.63;102033.59;4918129;29;20322;-76
2021/03/11 12:19:31;;;;;;;16.52;11.50;;;;;;;5.87;93.90;102019.00;4918556;29;20027;-75
2021/03/11 12:22:16;;;;;;;17.40;10.30;;;;;;;6.21;90.86;102031.91;4917382;29;20024;-77
2021/03/11 12:25:03;;;;;;;16.52;10.65;;;;;;;6.15;88.33;102033.50;4917463;29;20103;-76
2021/03/11 12:27:48;;;;;;;15.18;10.85;;;;;;;6.37;82.70;102031.38;4904685;29;20153;-77
2021/03/11 12:30:34;;;;;;;16.65;10.80;;;;;;;6.46;80.26;102028.06;4904998;29;20028;-76
2021/03/11 12:33:31;;;;;;;17.58;10.18;;;;;;;6.42;88.44;102031.47;4917358;29;20048;-76
2021/03/11 12:36:17;;;;;;;17.45;11.07;;;;;;;6.32;70.58;102035.63;4918025;29;20028;-76
2021/03/11 12:39:05;;;;;;;16.05;10.38;;;;;;;6.65;68.01;102036.28;4919245;29;20028;-77
2021/03/11 12:41:51;;;;;;;16.73;11.80;;;;;;;6.26;75.82;102039.84;4919215;29;20043;-76
2021/03/11 12:44:37;;;;;;;17.23;11.88;;;;;;;6.92;80.21;102046.34;4921978;29;20024;-75
2021/03/11 12:47:22;;;;;;;19.58;13.02;;;;;;;6.71;85.44;102038.13;4923857;29;20036;-77
2021/03/11 12:50:09;;;;;;;22.88;13.88;;;;;;;7.14;95.34;102038.94;4923756;29;20492;-75
2021/03/11 12:52:54;;;;;;;22.27;15.00;;;;;;;6.64;98.89;102044.06;4920210;29;20075;-75
2021/03/11 12:55:40;;;;;;;29.75;18.50;;;;;;;6.36;100.00;102046.97;4922921;29;20028;-76
2021/03/11 12:58:26;;;;;;;22.52;13.80;;;;;;;5.44;94.18;102035.31;4906746;29;20102;-76